sensor_id;sensor_type;location;lat;lon;timestamp;pressure;altitude;pressure_sealevel;temperature;humidity
70909;BME280;58554;52.006;5.926;2023-04-22T00:00:01;100061.44;;;10.68;67.89
70909;BME280;58554;52.006;5.926;2023-04-22T00:02:27;100053.84;;;10.64;67.91
70909;BME280;58554;52.006;5.926;2023-04-22T00:04:54;100062.75;;;10.63;67.76
70909;BME280;58554;52.006;5.926;2023-04-22T00:07:20;100064.84;;;10.58;67.92
70909;BME280;58554;52.006;5.926;2023-04-22T00:09:47;100058.91;;;10.54;67.99
70909;BME280;58554;52.006;5.926;2023-04-22T00:12:14;100062.59;;;10.51;67.84
70909;BME280;58554;52.006;5.926;2023-04-22T00:14:43;100060.19;;;10.48;67.77
70909;BME280;58554;52.006;5.926;2023-04-22T00:17:10;100054.25;;;10.45;67.98
70909;BME280;58554;52.006;5.926;2023-04-22T00:19:36;100046.44;;;10.43;67.85
70909;BME280;58554;52.006;5.926;2023-04-22T00:22:03;100050.03;;;10.42;67.92
70909;BME280;58554;52.006;5.926;2023-04-22T00:24:30;100046.66;;;10.40;67.95
70909;BME280;58554;52.006;5.926;2023-04-22T00:26:56;100048.56;;;10.38;68.01
70909;BME280;58554;52.006;5.926;2023-04-22T00:29:23;100041.56;;;10.37;68.02
70909;BME280;58554;52.006;5.926;2023-04-22T00:31:53;100044.34;;;10.36;68.14
70909;BME280;58554;52.006;5.926;2023-04-22T00:34:19;100049.72;;;10.34;68.08
70909;BME280;58554;52.006;5.926;2023-04-22T00:36:48;100044.53;;;10.32;68.27
70909;BME280;58554;52.006;5.926;2023-04-22T00:39:15;100049.91;;;10.31;68.03
70909;BME280;58554;52.006;5.926;2023-04-22T00:41:42;100044.75;;;10.29;67.96
70909;BME280;58554;52.006;5.926;2023-04-22T00:44:09;100041.13;;;10.30;68.24
70909;BME280;58554;52.006;5.926;2023-04-22T00:46:38;100040.50;;;10.27;68.06
70909;BME280;58554;52.006;5.926;2023-04-22T00:49:07;100031.81;;;10.25;68.31
70909;BME280;58554;52.006;5.926;2023-04-22T00:51:34;100032.69;;;10.25;68.25
70909;BME280;58554;52.006;5.926;2023-04-22T00:54:00;100036.06;;;10.27;68.38
70909;BME280;58554;52.006;5.926;2023-04-22T00:56:28;100033.53;;;10.26;68.31
70909;BME280;58554;52.006;5.926;2023-04-22T00:58:57;100033.53;;;10.26;68.34
70909;BME280;58554;52.006;5.926;2023-04-22T01:01:25;100032.69;;;10.25;68.14
70909;BME280;58554;52.006;5.926;2023-04-22T01:03:52;100030.16;;;10.24;68.54
70909;BME280;58554;52.006;5.926;2023-04-22T01:06:23;100029.50;;;10.20;68.23
70909;BME280;58554;52.006;5.926;2023-04-22T01:08:50;100031.41;;;10.18;68.45
70909;BME280;58554;52.006;5.926;2023-04-22T01:11:16;100028.84;;;10.17;68.39
70909;BME280;58554;52.006;5.926;2023-04-22T01:13:43;100033.41;;;10.14;68.52
70909;BME280;58554;52.006;5.926;2023-04-22T01:16:10;100026.34;;;10.15;68.60
70909;BME280;58554;52.006;5.926;2023-04-22T01:18:40;100021.97;;;10.14;68.76
70909;BME280;58554;52.006;5.926;2023-04-22T01:21:07;100025.69;;;10.11;68.63
70909;BME280;58554;52.006;5.926;2023-04-22T01:23:37;100029.38;;;10.09;68.81
70909;BME280;58554;52.006;5.926;2023-04-22T01:26:05;100025.03;;;10.08;68.80
70909;BME280;58554;52.006;5.926;2023-04-22T01:28:31;100020.81;;;10.05;68.73
70909;BME280;58554;52.006;5.926;2023-04-22T01:30:58;100025.34;;;10.03;68.89
70909;BME280;58554;52.006;5.926;2023-04-22T01:33:25;100027.16;;;10.03;68.93
70909;BME280;58554;52.006;5.926;2023-04-22T01:35:52;100023.78;;;10.01;68.88
70909;BME280;58554;52.006;5.926;2023-04-22T01:38:19;100017.75;;;9.99;68.95
70909;BME280;58554;52.006;5.926;2023-04-22T01:40:48;100015.19;;;9.97;69.27
70909;BME280;58554;52.006;5.926;2023-04-22T01:43:15;100017.09;;;9.95;69.29
70909;BME280;58554;52.006;5.926;2023-04-22T01:45:41;100012.78;;;9.94;69.21
70909;BME280;58554;52.006;5.926;2023-04-22T01:48:08;100016.34;;;9.93;69.33
70909;BME280;58554;52.006;5.926;2023-04-22T01:50:35;100019.94;;;9.92;69.30
70909;BME280;58554;52.006;5.926;2023-04-22T01:53:02;100018.34;;;9.89;69.38
70909;BME280;58554;52.006;5.926;2023-04-22T01:55:29;100016.66;;;9.88;69.34
70909;BME280;58554;52.006;5.926;2023-04-22T01:57:58;100013.38;;;9.85;69.57
70909;BME280;58554;52.006;5.926;2023-04-22T02:00:25;100009.06;;;9.84;69.69
70909;BME280;58554;52.006;5.926;2023-04-22T02:02:51;100009.88;;;9.84;69.59
70909;BME280;58554;52.006;5.926;2023-04-22T02:05:18;100017.72;;;9.86;69.71
70909;BME280;58554;52.006;5.926;2023-04-22T02:07:44;100014.22;;;9.85;69.68
70909;BME280;58554;52.006;5.926;2023-04-22T02:10:11;100014.34;;;9.84;69.72
70909;BME280;58554;52.006;5.926;2023-04-22T02:12:38;100017.91;;;9.83;69.55
70909;BME280;58554;52.006;5.926;2023-04-22T02:15:09;100012.75;;;9.81;69.56
70909;BME280;58554;52.006;5.926;2023-04-22T02:17:36;100015.47;;;9.80;69.56
70909;BME280;58554;52.006;5.926;2023-04-22T02:20:04;100019.06;;;9.79;69.86
70909;BME280;58554;52.006;5.926;2023-04-22T02:22:32;100015.56;;;9.78;69.66
70909;BME280;58554;52.006;5.926;2023-04-22T02:24:59;100013.91;;;9.77;69.89
70909;BME280;58554;52.006;5.926;2023-04-22T02:27:25;100006.06;;;9.76;70.04
70909;BME280;58554;52.006;5.926;2023-04-22T02:29:52;100000.78;;;9.76;69.80
70909;BME280;58554;52.006;5.926;2023-04-22T02:32:21;100005.22;;;9.75;69.87
70909;BME280;58554;52.006;5.926;2023-04-22T02:34:47;100008.81;;;9.74;70.07
70909;BME280;58554;52.006;5.926;2023-04-22T02:37:14;100002.78;;;9.72;70.29
70909;BME280;58554;52.006;5.926;2023-04-22T02:39:41;100003.63;;;9.72;70.25
70909;BME280;58554;52.006;5.926;2023-04-22T02:42:07;100001.94;;;9.71;70.24
70909;BME280;58554;52.006;5.926;2023-04-22T02:44:34;100007.22;;;9.71;70.20
70909;BME280;58554;52.006;5.926;2023-04-22T02:47:00;100002.78;;;9.72;70.42
70909;BME280;58554;52.006;5.926;2023-04-22T02:49:29;100002.78;;;9.72;70.44
70909;BME280;58554;52.006;5.926;2023-04-22T02:51:56;99990.53;;;9.71;70.39
70909;BME280;58554;52.006;5.926;2023-04-22T02:54:23;99988.75;;;9.71;70.69
70909;BME280;58554;52.006;5.926;2023-04-22T02:56:49;99976.47;;;9.70;70.68
70909;BME280;58554;52.006;5.926;2023-04-22T02:59:16;99980.91;;;9.70;70.82
70909;BME280;58554;52.006;5.926;2023-04-22T03:01:42;99984.41;;;9.70;70.77
70909;BME280;58554;52.006;5.926;2023-04-22T03:04:09;99981.66;;;9.72;70.70
70909;BME280;58554;52.006;5.926;2023-04-22T03:06:39;99975.53;;;9.71;70.94
70909;BME280;58554;52.006;5.926;2023-04-22T03:09:05;99983.25;;;9.74;71.07
70909;BME280;58554;52.006;5.926;2023-04-22T03:11:32;99973.66;;;9.73;70.87
70909;BME280;58554;52.006;5.926;2023-04-22T03:13:58;99974.56;;;9.72;71.21
70909;BME280;58554;52.006;5.926;2023-04-22T03:16:25;99977.97;;;9.74;70.97
70909;BME280;58554;52.006;5.926;2023-04-22T03:18:51;99976.28;;;9.73;71.18
70909;BME280;58554;52.006;5.926;2023-04-22T03:21:18;99976.28;;;9.73;70.95
70909;BME280;58554;52.006;5.926;2023-04-22T03:23:47;99969.19;;;9.74;71.12
70909;BME280;58554;52.006;5.926;2023-04-22T03:26:13;99969.19;;;9.74;71.33
70909;BME280;58554;52.006;5.926;2023-04-22T03:28:40;99967.41;;;9.74;71.16
70909;BME280;58554;52.006;5.926;2023-04-22T03:31:07;99969.94;;;9.76;71.51
70909;BME280;58554;52.006;5.926;2023-04-22T03:33:33;99968.28;;;9.75;71.32
70909;BME280;58554;52.006;5.926;2023-04-22T03:36:00;99962.13;;;9.74;71.06
70909;BME280;58554;52.006;5.926;2023-04-22T03:38:26;99963.09;;;9.73;71.22
70909;BME280;58554;52.006;5.926;2023-04-22T03:40:55;99969.09;;;9.76;71.14
70909;BME280;58554;52.006;5.926;2023-04-22T03:43:22;99959.47;;;9.74;71.34
70909;BME280;58554;52.006;5.926;2023-04-22T03:45:49;99951.69;;;9.73;71.23
70909;BME280;58554;52.006;5.926;2023-04-22T03:48:16;99960.44;;;9.73;71.26
70909;BME280;58554;52.006;5.926;2023-04-22T03:50:43;99941.22;;;9.71;71.46
70909;BME280;58554;52.006;5.926;2023-04-22T03:53:10;99945.53;;;9.72;71.42
70909;BME280;58554;52.006;5.926;2023-04-22T03:55:36;99945.53;;;9.72;71.45
70909;BME280;58554;52.006;5.926;2023-04-22T03:58:05;99941.22;;;9.71;71.56
70909;BME280;58554;52.006;5.926;2023-04-22T04:00:32;99943.88;;;9.71;71.47
70909;BME280;58554;52.006;5.926;2023-04-22T04:02:58;99944.78;;;9.70;71.51
70909;BME280;58554;52.006;5.926;2023-04-22T04:05:25;99937.75;;;9.71;71.55
70909;BME280;58554;52.006;5.926;2023-04-22T04:07:52;99935.09;;;9.71;71.48
70909;BME280;58554;52.006;5.926;2023-04-22T04:10:18;99936.88;;;9.70;71.79
70909;BME280;58554;52.006;5.926;2023-04-22T04:12:45;99943.13;;;9.69;71.90
70909;BME280;58554;52.006;5.926;2023-04-22T04:15:14;99933.41;;;9.70;71.95
70909;BME280;58554;52.006;5.926;2023-04-22T04:17:41;99930.75;;;9.70;71.96
70909;BME280;58554;52.006;5.926;2023-04-22T04:20:08;99927.28;;;9.69;71.71
70909;BME280;58554;52.006;5.926;2023-04-22T04:22:35;99930.66;;;9.71;72.00
70909;BME280;58554;52.006;5.926;2023-04-22T04:25:02;99927.19;;;9.71;72.05
70909;BME280;58554;52.006;5.926;2023-04-22T04:27:29;99920.09;;;9.71;71.97
70909;BME280;58554;52.006;5.926;2023-04-22T04:29:56;99917.25;;;9.74;71.95
70909;BME280;58554;52.006;5.926;2023-04-22T04:32:25;99923.25;;;9.77;71.70
70909;BME280;58554;52.006;5.926;2023-04-22T04:34:52;99912.81;;;9.75;72.04
70909;BME280;58554;52.006;5.926;2023-04-22T04:37:19;99909.31;;;9.74;71.78
70909;BME280;58554;52.006;5.926;2023-04-22T04:39:46;99919.88;;;9.74;72.20
70909;BME280;58554;52.006;5.926;2023-04-22T04:42:12;99921.69;;;9.74;71.87
70909;BME280;58554;52.006;5.926;2023-04-22T04:44:39;99905.00;;;9.73;72.03
70909;BME280;58554;52.006;5.926;2023-04-22T04:47:05;99911.13;;;9.74;72.17
70909;BME280;58554;52.006;5.926;2023-04-22T04:49:35;99914.72;;;9.73;72.14
70909;BME280;58554;52.006;5.926;2023-04-22T04:52:01;99917.38;;;9.73;72.18
70909;BME280;58554;52.006;5.926;2023-04-22T04:54:28;99918.22;;;9.73;72.20
70909;BME280;58554;52.006;5.926;2023-04-22T04:56:54;99913.84;;;9.72;72.07
70909;BME280;58554;52.006;5.926;2023-04-22T04:59:21;99914.59;;;9.74;72.24
70909;BME280;58554;52.006;5.926;2023-04-22T05:01:48;99913.66;;;9.76;72.29
70909;BME280;58554;52.006;5.926;2023-04-22T05:04:14;99909.03;;;9.79;72.42
70909;BME280;58554;52.006;5.926;2023-04-22T05:06:43;99909.13;;;9.78;72.10
70909;BME280;58554;52.006;5.926;2023-04-22T05:09:10;99906.41;;;9.79;72.38
70909;BME280;58554;52.006;5.926;2023-04-22T05:11:36;99910.72;;;9.80;72.38
70909;BME280;58554;52.006;5.926;2023-04-22T05:14:04;99909.66;;;9.83;72.38
70909;BME280;58554;52.006;5.926;2023-04-22T05:16:31;99915.91;;;9.82;72.28
70909;BME280;58554;52.006;5.926;2023-04-22T05:18:58;99917.47;;;9.84;72.33
70909;BME280;58554;52.006;5.926;2023-04-22T05:21:24;99920.94;;;9.85;72.35
70909;BME280;58554;52.006;5.926;2023-04-22T05:23:53;99926.13;;;9.86;72.45
70909;BME280;58554;52.006;5.926;2023-04-22T05:26:20;99915.56;;;9.86;72.32
70909;BME280;58554;52.006;5.926;2023-04-22T05:28:46;99916.31;;;9.88;72.43
70909;BME280;58554;52.006;5.926;2023-04-22T05:31:13;99929.41;;;9.90;72.44
70909;BME280;58554;52.006;5.926;2023-04-22T05:33:39;99921.28;;;9.93;72.44
70909;BME280;58554;52.006;5.926;2023-04-22T05:36:06;99926.47;;;9.94;72.52
70909;BME280;58554;52.006;5.926;2023-04-22T05:38:33;99923.81;;;9.94;72.55
70909;BME280;58554;52.006;5.926;2023-04-22T05:41:02;99930.69;;;9.97;72.49
70909;BME280;58554;52.006;5.926;2023-04-22T05:43:29;99926.13;;;9.99;72.62
70909;BME280;58554;52.006;5.926;2023-04-22T05:45:55;99933.88;;;10.02;72.66
70909;BME280;58554;52.006;5.926;2023-04-22T05:48:22;99926.56;;;10.06;72.42
70909;BME280;58554;52.006;5.926;2023-04-22T05:50:48;99924.78;;;10.06;72.67
70909;BME280;58554;52.006;5.926;2023-04-22T05:53:15;99921.91;;;10.09;72.75
70909;BME280;58554;52.006;5.926;2023-04-22T05:55:41;99912.94;;;10.12;72.81
70909;BME280;58554;52.006;5.926;2023-04-22T05:58:11;99913.56;;;10.16;72.71
70909;BME280;58554;52.006;5.926;2023-04-22T06:00:37;99905.41;;;10.19;72.63
70909;BME280;58554;52.006;5.926;2023-04-22T06:03:04;99914.72;;;10.24;72.93
70909;BME280;58554;52.006;5.926;2023-04-22T06:05:30;99913.66;;;10.27;72.93
70909;BME280;58554;52.006;5.926;2023-04-22T06:07:57;99910.72;;;10.31;72.81
70909;BME280;58554;52.006;5.926;2023-04-22T06:10:24;99904.28;;;10.36;72.91
70909;BME280;58554;52.006;5.926;2023-04-22T06:12:51;99911.97;;;10.39;73.09
70909;BME280;58554;52.006;5.926;2023-04-22T06:15:20;99910.78;;;10.43;72.81
70909;BME280;58554;52.006;5.926;2023-04-22T06:17:47;99916.72;;;10.46;72.90
70909;BME280;58554;52.006;5.926;2023-04-22T06:20:14;99923.47;;;10.50;72.96
70909;BME280;58554;52.006;5.926;2023-04-22T06:22:40;99917.03;;;10.54;72.96
70909;BME280;58554;52.006;5.926;2023-04-22T06:25:07;99916.78;;;10.58;73.21
70909;BME280;58554;52.006;5.926;2023-04-22T06:27:34;99920.81;;;10.63;73.08
70909;BME280;58554;52.006;5.926;2023-04-22T06:30:01;99922.28;;;10.67;73.19
70909;BME280;58554;52.006;5.926;2023-04-22T06:32:30;99917.63;;;10.71;73.33
70909;BME280;58554;52.006;5.926;2023-04-22T06:34:57;99922.47;;;10.77;73.26
70909;BME280;58554;52.006;5.926;2023-04-22T06:37:23;99913.38;;;10.81;73.24
70909;BME280;58554;52.006;5.926;2023-04-22T06:39:50;99911.31;;;10.85;73.08
70909;BME280;58554;52.006;5.926;2023-04-22T06:42:16;99919.69;;;10.91;73.20
70909;BME280;58554;52.006;5.926;2023-04-22T06:44:43;99910.81;;;10.92;73.08
70909;BME280;58554;52.006;5.926;2023-04-22T06:47:09;99907.00;;;10.97;73.07
70909;BME280;58554;52.006;5.926;2023-04-22T06:49:38;99902.53;;;10.97;73.00
70909;BME280;58554;52.006;5.926;2023-04-22T06:52:05;99889.94;;;11.01;73.05
70909;BME280;58554;52.006;5.926;2023-04-22T06:54:31;99888.03;;;11.03;73.41
70909;BME280;58554;52.006;5.926;2023-04-22T06:56:58;99886.84;;;11.07;73.54
70909;BME280;58554;52.006;5.926;2023-04-22T06:59:24;99890.13;;;11.10;73.46
70909;BME280;58554;52.006;5.926;2023-04-22T07:01:51;99896.00;;;11.14;73.69
70909;BME280;58554;52.006;5.926;2023-04-22T07:04:18;99884.25;;;11.18;73.94
70909;BME280;58554;52.006;5.926;2023-04-22T07:06:47;99880.19;;;11.25;74.05
70909;BME280;58554;52.006;5.926;2023-04-22T07:09:16;99880.47;;;11.33;73.96
70909;BME280;58554;52.006;5.926;2023-04-22T07:11:43;99877.47;;;11.38;73.84
70909;BME280;58554;52.006;5.926;2023-04-22T07:14:09;99891.91;;;11.45;73.89
70909;BME280;58554;52.006;5.926;2023-04-22T07:16:36;99886.16;;;11.51;73.95
70909;BME280;58554;52.006;5.926;2023-04-22T07:19:04;99882.94;;;11.59;74.03
70909;BME280;58554;52.006;5.926;2023-04-22T07:21:30;99876.22;;;11.66;73.67
70909;BME280;58554;52.006;5.926;2023-04-22T07:23:59;99866.03;;;11.73;73.91
70909;BME280;58554;52.006;5.926;2023-04-22T07:26:26;99875.78;;;11.84;74.03
70909;BME280;58554;52.006;5.926;2023-04-22T07:28:53;99865.19;;;11.95;74.33
70909;BME280;58554;52.006;5.926;2023-04-22T07:31:19;99865.22;;;12.06;74.47
70909;BME280;58554;52.006;5.926;2023-04-22T07:33:46;99858.94;;;12.19;74.45
70909;BME280;58554;52.006;5.926;2023-04-22T07:36:12;99857.38;;;12.27;74.21
70909;BME280;58554;52.006;5.926;2023-04-22T07:38:39;99849.69;;;12.35;73.85
70909;BME280;58554;52.006;5.926;2023-04-22T07:41:08;99848.84;;;12.46;74.17
70909;BME280;58554;52.006;5.926;2023-04-22T07:43:34;99855.81;;;12.59;74.25
70909;BME280;58554;52.006;5.926;2023-04-22T07:46:01;99853.25;;;12.68;73.63
70909;BME280;58554;52.006;5.926;2023-04-22T07:48:28;99851.06;;;12.73;73.76
70909;BME280;58554;52.006;5.926;2023-04-22T07:50:55;99851.41;;;12.80;73.41
70909;BME280;58554;52.006;5.926;2023-04-22T07:53:21;99857.31;;;12.84;73.12
70909;BME280;58554;52.006;5.926;2023-04-22T07:55:48;99852.47;;;12.89;73.00
70909;BME280;58554;52.006;5.926;2023-04-22T07:58:17;99859.94;;;12.95;73.04
70909;BME280;58554;52.006;5.926;2023-04-22T08:00:44;99862.19;;;13.00;72.78
70909;BME280;58554;52.006;5.926;2023-04-22T08:03:10;99861.13;;;13.02;72.63
70909;BME280;58554;52.006;5.926;2023-04-22T08:05:37;99866.06;;;13.07;72.47
70909;BME280;58554;52.006;5.926;2023-04-22T08:08:04;99864.13;;;13.09;72.47
70909;BME280;58554;52.006;5.926;2023-04-22T08:10:31;99861.91;;;13.14;72.37
70909;BME280;58554;52.006;5.926;2023-04-22T08:12:57;99862.38;;;13.19;72.39
70909;BME280;58554;52.006;5.926;2023-04-22T08:15:26;99865.38;;;13.26;72.62
70909;BME280;58554;52.006;5.926;2023-04-22T08:17:53;99879.09;;;13.31;72.42
70909;BME280;58554;52.006;5.926;2023-04-22T08:20:20;99875.38;;;13.33;72.23
70909;BME280;58554;52.006;5.926;2023-04-22T08:22:48;99872.31;;;13.38;72.25
70909;BME280;58554;52.006;5.926;2023-04-22T08:25:15;99874.47;;;13.44;71.88
70909;BME280;58554;52.006;5.926;2023-04-22T08:27:42;99864.41;;;13.48;71.84
70909;BME280;58554;52.006;5.926;2023-04-22T08:30:09;99843.63;;;13.53;71.81
70909;BME280;58554;52.006;5.926;2023-04-22T08:32:39;99839.25;;;13.63;72.07
70909;BME280;58554;52.006;5.926;2023-04-22T08:35:06;99834.97;;;13.72;71.50
70909;BME280;58554;52.006;5.926;2023-04-22T08:37:34;99830.78;;;13.79;71.40
70909;BME280;58554;52.006;5.926;2023-04-22T08:40:00;99842.31;;;13.89;71.15
70909;BME280;58554;52.006;5.926;2023-04-22T08:42:28;99822.81;;;14.00;70.99
70909;BME280;58554;52.006;5.926;2023-04-22T08:44:56;99813.75;;;14.12;71.00
70909;BME280;58554;52.006;5.926;2023-04-22T08:47:24;99817.97;;;14.25;71.18
70909;BME280;58554;52.006;5.926;2023-04-22T08:49:54;99816.66;;;14.40;71.10
70909;BME280;58554;52.006;5.926;2023-04-22T08:52:21;99821.97;;;14.50;70.82
70909;BME280;58554;52.006;5.926;2023-04-22T08:54:47;99813.06;;;14.61;70.48
70909;BME280;58554;52.006;5.926;2023-04-22T08:57:14;99816.13;;;14.66;70.24
70909;BME280;58554;52.006;5.926;2023-04-22T08:59:45;99818.16;;;14.73;70.12
70909;BME280;58554;52.006;5.926;2023-04-22T09:02:18;99809.59;;;14.80;70.03
70909;BME280;58554;52.006;5.926;2023-04-22T09:04:47;99809.06;;;14.86;69.71
70909;BME280;58554;52.006;5.926;2023-04-22T09:07:21;99812.25;;;14.89;69.57
70909;BME280;58554;52.006;5.926;2023-04-22T09:09:49;99810.47;;;14.90;69.33
70909;BME280;58554;52.006;5.926;2023-04-22T09:12:16;99806.66;;;14.92;69.44
70909;BME280;58554;52.006;5.926;2023-04-22T09:14:43;99808.78;;;14.98;69.58
70909;BME280;58554;52.006;5.926;2023-04-22T09:17:14;99809.75;;;15.07;69.46
70909;BME280;58554;52.006;5.926;2023-04-22T09:19:41;99811.97;;;15.12;69.14
70909;BME280;58554;52.006;5.926;2023-04-22T09:22:09;99807.22;;;15.15;68.75
70909;BME280;58554;52.006;5.926;2023-04-22T09:24:41;99804.00;;;15.22;68.51
70909;BME280;58554;52.006;5.926;2023-04-22T09:27:09;99780.28;;;15.28;68.65
70909;BME280;58554;52.006;5.926;2023-04-22T09:29:35;99779.72;;;15.34;68.99
70909;BME280;58554;52.006;5.926;2023-04-22T09:32:08;99781.00;;;15.40;68.35
70909;BME280;58554;52.006;5.926;2023-04-22T09:34:44;99783.22;;;15.45;68.28
70909;BME280;58554;52.006;5.926;2023-04-22T09:37:14;99778.59;;;15.47;67.65
70909;BME280;58554;52.006;5.926;2023-04-22T09:39:47;99778.44;;;15.48;67.36
70909;BME280;58554;52.006;5.926;2023-04-22T09:42:13;99773.81;;;15.50;67.18
70909;BME280;58554;52.006;5.926;2023-04-22T09:44:40;99772.53;;;15.54;67.22
70909;BME280;58554;52.006;5.926;2023-04-22T09:47:06;99770.28;;;15.59;67.33
70909;BME280;58554;52.006;5.926;2023-04-22T09:49:36;99767.34;;;15.63;67.22
70909;BME280;58554;52.006;5.926;2023-04-22T09:52:03;99763.53;;;15.65;67.08
70909;BME280;58554;52.006;5.926;2023-04-22T09:54:30;99768.28;;;15.71;67.17
70909;BME280;58554;52.006;5.926;2023-04-22T09:56:59;99763.34;;;15.76;67.29
70909;BME280;58554;52.006;5.926;2023-04-22T09:59:27;99774.97;;;15.85;67.05
70909;BME280;58554;52.006;5.926;2023-04-22T10:01:56;99765.81;;;15.97;67.16
70909;BME280;58554;52.006;5.926;2023-04-22T10:04:24;99770.66;;;16.12;66.90
70909;BME280;58554;52.006;5.926;2023-04-22T10:06:51;99764.81;;;16.26;66.34
70909;BME280;58554;52.006;5.926;2023-04-22T10:09:21;99766.44;;;16.37;66.30
70909;BME280;58554;52.006;5.926;2023-04-22T10:11:50;99765.22;;;16.49;65.80
70909;BME280;58554;52.006;5.926;2023-04-22T10:14:20;99764.72;;;16.64;65.67
70909;BME280;58554;52.006;5.926;2023-04-22T10:16:50;99766.63;;;16.71;65.21
70909;BME280;58554;52.006;5.926;2023-04-22T10:19:26;99764.34;;;16.76;65.30
70909;BME280;58554;52.006;5.926;2023-04-22T10:21:56;99764.59;;;16.83;64.48
70909;BME280;58554;52.006;5.926;2023-04-22T10:24:26;99757.13;;;16.87;64.46
70909;BME280;58554;52.006;5.926;2023-04-22T10:26:55;99754.16;;;16.90;64.24
70909;BME280;58554;52.006;5.926;2023-04-22T10:29:33;99753.69;;;16.94;64.38
70909;BME280;58554;52.006;5.926;2023-04-22T10:32:04;99751.56;;;16.98;63.94
70909;BME280;58554;52.006;5.926;2023-04-22T10:34:48;99752.25;;;17.00;63.83
70909;BME280;58554;52.006;5.926;2023-04-22T10:37:18;99756.09;;;17.06;63.28
70909;BME280;58554;52.006;5.926;2023-04-22T10:40:07;99749.47;;;17.10;63.06
70909;BME280;58554;52.006;5.926;2023-04-22T10:42:38;99756.03;;;17.15;63.71
70909;BME280;58554;52.006;5.926;2023-04-22T10:45:11;99763.28;;;17.23;63.51
70909;BME280;58554;52.006;5.926;2023-04-22T10:47:39;99762.78;;;17.28;63.04
70909;BME280;58554;52.006;5.926;2023-04-22T10:50:17;99767.50;;;17.34;62.89
70909;BME280;58554;52.006;5.926;2023-04-22T10:52:49;99766.34;;;17.36;62.76
70909;BME280;58554;52.006;5.926;2023-04-22T10:55:21;99764.38;;;17.38;62.83
70909;BME280;58554;52.006;5.926;2023-04-22T10:57:49;99770.25;;;17.42;62.72
70909;BME280;58554;52.006;5.926;2023-04-22T11:00:28;99774.28;;;17.46;62.11
70909;BME280;58554;52.006;5.926;2023-04-22T11:03:09;99759.75;;;17.49;62.40
70909;BME280;58554;52.006;5.926;2023-04-22T11:05:40;99762.28;;;17.50;62.47
70909;BME280;58554;52.006;5.926;2023-04-22T11:08:12;99767.44;;;17.52;62.48
70909;BME280;58554;52.006;5.926;2023-04-22T11:10:44;99761.13;;;17.53;62.65
70909;BME280;58554;52.006;5.926;2023-04-22T11:13:14;99761.66;;;17.56;62.60
70909;BME280;58554;52.006;5.926;2023-04-22T11:15:45;99765.34;;;17.64;62.16
70909;BME280;58554;52.006;5.926;2023-04-22T11:18:18;99759.72;;;17.75;62.08
70909;BME280;58554;52.006;5.926;2023-04-22T11:20:46;99759.34;;;17.88;61.63
70909;BME280;58554;52.006;5.926;2023-04-22T11:23:22;99762.56;;;17.99;61.48
70909;BME280;58554;52.006;5.926;2023-04-22T11:25:55;99764.44;;;18.07;61.40
70909;BME280;58554;52.006;5.926;2023-04-22T11:28:22;99760.97;;;18.15;61.08
70909;BME280;58554;52.006;5.926;2023-04-22T11:30:52;99753.44;;;18.27;61.06
70909;BME280;58554;52.006;5.926;2023-04-22T11:33:18;99753.84;;;18.40;60.69
70909;BME280;58554;52.006;5.926;2023-04-22T11:35:49;99750.00;;;18.51;59.95
70909;BME280;58554;52.006;5.926;2023-04-22T11:38:16;99750.53;;;18.54;60.00
70909;BME280;58554;52.006;5.926;2023-04-22T11:40:43;99746.84;;;18.55;59.67
70909;BME280;58554;52.006;5.926;2023-04-22T11:43:10;99749.00;;;18.60;59.60
70909;BME280;58554;52.006;5.926;2023-04-22T11:45:38;99750.88;;;18.68;59.46
70909;BME280;58554;52.006;5.926;2023-04-22T11:48:09;99754.09;;;18.71;58.67
70909;BME280;58554;52.006;5.926;2023-04-22T11:50:38;99744.38;;;18.70;58.54
70909;BME280;58554;52.006;5.926;2023-04-22T11:53:13;99735.34;;;18.71;57.99
70909;BME280;58554;52.006;5.926;2023-04-22T11:55:42;99733.50;;;18.72;58.11
70909;BME280;58554;52.006;5.926;2023-04-22T11:58:12;99737.84;;;18.73;58.30
70909;BME280;58554;52.006;5.926;2023-04-22T12:00:43;99741.03;;;18.76;58.22
70909;BME280;58554;52.006;5.926;2023-04-22T12:03:15;99739.03;;;18.78;57.66
70909;BME280;58554;52.006;5.926;2023-04-22T12:05:44;99733.81;;;18.77;57.70
70909;BME280;58554;52.006;5.926;2023-04-22T12:08:14;99739.84;;;18.79;57.66
70909;BME280;58554;52.006;5.926;2023-04-22T12:10:43;99733.34;;;18.73;57.36
70909;BME280;58554;52.006;5.926;2023-04-22T12:13:19;99740.50;;;18.65;57.24
70909;BME280;58554;52.006;5.926;2023-04-22T12:15:47;99748.53;;;18.56;57.44
70909;BME280;58554;52.006;5.926;2023-04-22T12:18:29;99742.13;;;18.49;57.38
70909;BME280;58554;52.006;5.926;2023-04-22T12:21:08;99737.13;;;18.46;57.51
70909;BME280;58554;52.006;5.926;2023-04-22T12:23:43;99732.75;;;18.45;57.93
70909;BME280;58554;52.006;5.926;2023-04-22T12:26:11;99736.59;;;18.42;58.51
70909;BME280;58554;52.006;5.926;2023-04-22T12:28:40;99728.41;;;18.36;58.65
70909;BME280;58554;52.006;5.926;2023-04-22T12:31:08;99735.59;;;18.35;58.90
70909;BME280;58554;52.006;5.926;2023-04-22T12:33:38;99736.75;;;18.33;58.79
70909;BME280;58554;52.006;5.926;2023-04-22T12:36:06;99737.41;;;18.27;59.15
70909;BME280;58554;52.006;5.926;2023-04-22T12:38:33;99743.09;;;18.24;59.25
70909;BME280;58554;52.006;5.926;2023-04-22T12:41:00;99736.91;;;18.23;59.38
70909;BME280;58554;52.006;5.926;2023-04-22T12:43:29;99743.09;;;18.24;59.13
70909;BME280;58554;52.006;5.926;2023-04-22T12:45:57;99731.72;;;18.21;59.43
70909;BME280;58554;52.006;5.926;2023-04-22T12:48:24;99735.56;;;18.19;59.28
70909;BME280;58554;52.006;5.926;2023-04-22T12:50:53;99738.88;;;18.13;59.50
70909;BME280;58554;52.006;5.926;2023-04-22T12:53:19;99738.66;;;18.06;59.45
70909;BME280;58554;52.006;5.926;2023-04-22T12:55:46;99738.31;;;18.01;59.47
70909;BME280;58554;52.006;5.926;2023-04-22T12:58:13;99733.31;;;17.98;59.74
70909;BME280;58554;52.006;5.926;2023-04-22T13:00:40;99736.81;;;17.98;59.73
70909;BME280;58554;52.006;5.926;2023-04-22T13:03:07;99734.13;;;17.98;59.76
70909;BME280;58554;52.006;5.926;2023-04-22T13:05:33;99723.28;;;18.00;60.02